Time;durP1;ratioP1;P1;durP2;ratioP2;P2;SDS_P1;SDS_P2;PMS_P1;PMS_P2;Temp;Humidity;BMP_temperature;BMP_pressure;BME280_temperature;BME280_humidity;BME280_pressure;Samples;Min_cycle;Max_cycle;Signal;HPM_P1;HPM_P2
2022/07/18 00:00:56;;;;;;;4.33;1.33;;;;;;;19.07;79.38;102020.03;2073271;28;20639;-67
2022/07/18 00:01:58;;;;;;;5.57;1.33;;;;;;;19.09;80.85;102029.56;2077918;28;20211;-67
2022/07/18 00:02:59;;;;;;;4.40;1.20;;;;;;;19.08;80.13;102013.97;2081693;28;20694;-67
2022/07/18 00:03:59;;;;;;;3.30;1.17;;;;;;;18.30;79.29;101905.69;2075477;28;20559;-67
2022/07/18 00:05:00;;;;;;;5.67;1.10;;;;;;;19.10;77.00;102028.34;2072396;28;20198;-67
2022/07/18 00:06:00;;;;;;;4.40;1.20;;;;;;;18.87;77.09;101995.09;2075894;28;20256;-67
2022/07/18 00:07:01;;;;;;;4.03;1.30;;;;;;;19.08;78.29;102033.63;2080567;28;20173;-67
2022/07/18 00:08:02;;;;;;;8.43;1.30;;;;;;;19.09;79.36;102028.81;2081241;28;20254;-67
2022/07/18 00:09:04;;;;;;;10.07;1.60;;;;;;;19.12;78.97;102020.25;2073893;28;20579;-67
2022/07/18 00:10:05;;;;;;;6.27;1.67;;;;;;;19.14;78.87;102022.59;2073807;28;20200;-67
2022/07/18 00:11:05;;;;;;;8.83;1.23;;;;;;;19.17;81.36;102019.66;2073715;28;20440;-67
2022/07/18 00:12:07;;;;;;;4.23;1.23;;;;;;;19.05;78.45;102014.91;2073282;28;20182;-67
2022/07/18 00:13:09;;;;;;;7.20;1.33;;;;;;;19.04;76.61;102018.16;2078571;28;20192;-67
2022/07/18 00:14:11;;;;;;;6.40;1.60;;;;;;;19.02;77.00;102024.22;2077308;28;20463;-67
2022/07/18 00:15:11;;;;;;;4.43;1.30;;;;;;;19.06;78.71;102036.13;2075995;28;20788;-67
2022/07/18 00:16:12;;;;;;;2.87;1.00;;;;;;;19.10;87.97;102036.78;2080010;28;20438;-67
2022/07/18 00:17:12;;;;;;;4.13;1.20;;;;;;;19.11;89.12;102038.34;2073827;28;20188;-67
2022/07/18 00:18:13;;;;;;;2.80;1.20;;;;;;;19.03;91.88;102022.97;2081408;28;20563;-67
2022/07/18 00:19:14;;;;;;;3.00;1.20;;;;;;;19.06;90.60;102032.53;2081162;28;20242;-67
2022/07/18 00:20:15;;;;;;;2.93;1.10;;;;;;;19.05;90.37;102031.75;2081780;28;20204;-67
2022/07/18 00:21:16;;;;;;;3.07;1.40;;;;;;;18.98;85.59;102015.13;2075947;28;20467;-67
2022/07/18 00:22:17;;;;;;;5.27;1.30;;;;;;;19.08;91.18;102028.00;2073410;28;20335;-67
2022/07/18 00:23:17;;;;;;;3.50;1.20;;;;;;;19.10;90.92;102022.75;2077151;28;20942;-67
2022/07/18 00:24:18;;;;;;;6.10;1.20;;;;;;;19.09;89.21;102023.97;2078838;28;20673;-67
2022/07/18 00:25:18;;;;;;;7.30;1.33;;;;;;;19.08;87.74;102022.41;2072720;28;20614;-67
2022/07/18 00:26:19;;;;;;;5.60;1.20;;;;;;;18.99;85.15;102018.75;2080576;28;20211;-67
2022/07/18 00:27:19;;;;;;;6.93;1.37;;;;;;;17.97;86.24;101858.78;2073168;28;20252;-67
2022/07/18 00:28:20;;;;;;;4.93;1.17;;;;;;;19.00;85.65;102021.09;2073767;28;20663;-67
2022/07/18 00:29:20;;;;;;;6.70;1.40;;;;;;;18.83;82.33;102008.47;2079813;28;20187;-67
2022/07/18 00:30:21;;;;;;;6.23;1.43;;;;;;;17.93;80.98;101876.50;2076347;28;20201;-67
2022/07/18 00:31:21;;;;;;;6.40;1.20;;;;;;;18.86;80.88;102030.03;2073159;28;20239;-67
2022/07/18 00:32:22;;;;;;;7.50;1.40;;;;;;;18.88;82.02;102029.59;2073204;28;20330;-67
2022/07/18 00:33:22;;;;;;;6.90;1.30;;;;;;;18.89;81.19;102031.91;2073370;28;20178;-67
2022/07/18 00:34:23;;;;;;;7.47;1.30;;;;;;;18.91;84.47;102026.63;2073329;28;20291;-67
2022/07/18 00:35:24;;;;;;;7.33;1.60;;;;;;;18.92;85.08;102031.00;2081153;28;20180;-67
2022/07/18 00:36:25;;;;;;;7.70;1.80;;;;;;;18.56;84.89;101979.38;2074152;28;20203;-67
2022/07/18 00:37:25;;;;;;;8.10;1.60;;;;;;;18.90;85.33;102033.50;2072846;28;20936;-67
2022/07/18 00:38:26;;;;;;;4.43;1.17;;;;;;;17.72;82.43;101853.22;2081601;28;20692;-67
2022/07/18 00:39:26;;;;;;;6.07;1.60;;;;;;;18.85;81.97;102031.28;2077395;28;20188;-67
2022/07/18 00:40:27;;;;;;;8.83;1.60;;;;;;;18.90;80.71;102032.72;2076391;28;20263;-67
2022/07/18 00:41:27;;;;;;;8.00;1.60;;;;;;;18.91;79.90;102039.88;2081509;28;20185;-67
2022/07/18 00:42:28;;;;;;;3.57;1.17;;;;;;;18.86;79.57;102035.66;2081360;28;20201;-67
2022/07/18 00:43:28;;;;;;;6.47;1.40;;;;;;;18.85;83.21;102033.28;2081879;28;20177;-67
2022/07/18 00:44:29;;;;;;;8.53;1.30;;;;;;;18.35;81.50;101957.66;2073145;28;20189;-67
2022/07/18 00:45:30;;;;;;;2.97;1.20;;;;;;;18.88;83.12;102030.34;2079773;28;20221;-67
2022/07/18 00:46:30;;;;;;;6.10;1.30;;;;;;;18.92;82.64;102031.00;2081664;28;20197;-67
2022/07/18 00:47:31;;;;;;;6.40;1.03;;;;;;;18.91;81.17;102034.28;2076422;28;20206;-67
2022/07/18 00:48:32;;;;;;;6.37;1.23;;;;;;;18.83;82.06;102022.50;2076967;28;20190;-67
2022/07/18 00:49:32;;;;;;;5.53;1.20;;;;;;;18.88;80.63;102032.41;2079236;28;20193;-67
2022/07/18 00:50:33;;;;;;;6.17;1.20;;;;;;;18.94;84.32;102036.19;2079588;28;20231;-67
2022/07/18 00:51:36;;;;;;;5.77;1.10;;;;;;;18.92;85.12;102036.63;2073294;28;20233;-67
2022/07/18 00:52:37;;;;;;;8.37;1.50;;;;;;;18.93;89.32;102041.00;2073362;28;20176;-67
2022/07/18 00:53:38;;;;;;;6.03;1.27;;;;;;;18.87;88.66;102031.59;2088174;28;20519;-67
2022/07/18 00:54:38;;;;;;;3.00;1.10;;;;;;;18.94;92.09;102048.19;2076612;28;20431;-67
2022/07/18 00:55:42;;;;;;;5.63;1.10;;;;;;;18.94;90.84;102036.94;2072682;28;20247;-67
2022/07/18 00:56:43;;;;;;;7.63;1.00;;;;;;;18.59;85.00;102001.72;2077931;28;20630;-67
2022/07/18 00:57:44;;;;;;;8.27;1.57;;;;;;;18.89;81.74;102037.53;2081096;28;20452;-67
2022/07/18 00:58:45;;;;;;;4.47;1.50;;;;;;;18.86;85.65;102027.22;2081485;28;20426;-67
2022/07/18 01:02:26;;;;;;;4.90;1.10;;;;;;;18.19;92.06;101920.06;2076675;28;20453;-67
2022/07/18 01:03:27;;;;;;;5.97;1.17;;;;;;;18.91;91.48;102037.09;2073223;28;20440;-67
2022/07/18 01:04:27;;;;;;;3.43;1.10;;;;;;;18.87;91.14;102039.22;2072834;28;20497;-67
2022/07/18 01:05:28;;;;;;;2.80;1.10;;;;;;;18.77;90.64;102027.13;2072544;28;20523;-67
2022/07/18 01:06:29;;;;;;;5.47;1.40;;;;;;;18.80;92.36;102045.09;2073393;28;20690;-67
2022/07/18 01:07:29;;;;;;;11.40;2.97;;;;;;;18.77;94.77;102038.38;2081090;28;20180;-67
2022/07/18 01:08:30;;;;;;;10.17;2.47;;;;;;;18.73;96.12;102053.78;2081239;28;20184;-67
2022/07/18 01:09:30;;;;;;;9.03;2.00;;;;;;;17.46;95.76;101862.91;2075341;28;20200;-67
2022/07/18 01:10:31;;;;;;;6.23;1.63;;;;;;;18.48;96.64;102043.41;2078277;28;20189;-67
2022/07/18 01:11:33;;;;;;;8.40;1.53;;;;;;;18.39;96.55;102043.31;2081386;28;20193;-67
2022/07/18 01:12:33;;;;;;;6.50;1.60;;;;;;;18.29;97.28;102047.22;2077984;28;20185;-67
2022/07/18 01:13:34;;;;;;;5.07;1.10;;;;;;;18.13;98.32;102053.75;2073969;28;20424;-67
2022/07/18 01:14:35;;;;;;;8.67;1.57;;;;;;;18.07;98.29;102051.19;2080981;28;20235;-67
2022/07/18 01:15:39;;;;;;;6.30;1.40;;;;;;;18.06;99.59;102052.41;2080261;28;20203;-67
2022/07/18 01:16:39;;;;;;;7.27;1.30;;;;;;;18.01;97.92;102050.19;2072904;28;20415;-67
2022/07/18 01:17:40;;;;;;;4.27;1.10;;;;;;;17.87;97.50;102045.00;2079701;28;20948;-67
2022/07/18 01:18:44;;;;;;;4.53;1.20;;;;;;;17.86;98.56;102040.63;2080720;28;20711;-67
2022/07/18 01:19:46;;;;;;;4.47;1.27;;;;;;;17.81;98.65;102055.22;2075282;28;20195;-67
2022/07/18 01:20:47;;;;;;;7.67;1.80;;;;;;;17.04;99.74;101941.41;2077493;28;20458;-67
2022/07/18 01:21:47;;;;;;;7.43;1.80;;;;;;;17.75;100.00;102054.22;2077291;28;20434;-68
2022/07/18 01:22:48;;;;;;;9.83;2.43;;;;;;;17.68;100.00;102049.59;2072042;28;20187;-68
2022/07/18 01:23:48;;;;;;;11.27;1.97;;;;;;;17.46;100.00;102040.28;2072583;28;20178;-68
2022/07/18 01:24:49;;;;;;;12.77;2.50;;;;;;;17.52;100.00;102060.09;2073316;28;20188;-67
2022/07/18 01:25:50;;;;;;;13.23;2.97;;;;;;;16.97;100.00;101977.25;2080838;28;20184;-67
2022/07/18 01:26:50;;;;;;;11.77;2.20;;;;;;;17.37;100.00;102063.28;2073842;28;20228;-67
2022/07/18 01:27:51;;;;;;;11.10;1.90;;;;;;;16.37;100.00;101908.13;2072219;28;20177;-67
2022/07/18 01:28:52;;;;;;;7.80;1.80;;;;;;;17.38;100.00;102064.09;2077366;28;20198;-68
2022/07/18 01:29:53;;;;;;;14.00;2.50;;;;;;;17.35;100.00;102060.16;2077567;28;20648;-68
2022/07/18 01:30:53;;;;;;;8.00;1.93;;;;;;;17.38;100.00;102072.50;2073084;28;20197;-69
2022/07/18 01:31:54;;;;;;;8.43;1.90;;;;;;;17.39;100.00;102071.28;2074735;28;20536;-68
2022/07/18 01:32:57;;;;;;;10.03;1.90;;;;;;;17.39;100.00;102065.69;2080730;28;20209;-68
2022/07/18 01:33:57;;;;;;;8.57;1.80;;;;;;;17.37;100.00;102063.28;2080973;28;20308;-68
2022/07/18 01:34:58;;;;;;;6.97;1.80;;;;;;;17.39;100.00;102065.69;2080761;28;20489;-68
2022/07/18 01:36:00;;;;;;;3.87;1.53;;;;;;;17.41;100.00;102057.63;2078950;28;20184;-67
2022/07/18 01:37:01;;;;;;;9.60;1.80;;;;;;;16.61;100.00;101931.88;2080534;28;20200;-67
2022/07/18 01:38:03;;;;;;;6.57;1.47;;;;;;;17.10;100.00;102006.06;2081210;28;20552;-67
2022/07/18 01:39:03;;;;;;;5.70;1.63;;;;;;;16.55;100.00;101926.03;2077229;28;20197;-67
2022/07/18 01:40:09;;;;;;;9.57;2.00;;;;;;;17.47;100.00;102064.25;2075692;28;20599;-67
2022/07/18 01:41:10;;;;;;;11.47;1.80;;;;;;;17.49;100.00;102067.38;2075214;28;20189;-68
2022/07/18 01:42:11;;;;;;;7.33;1.50;;;;;;;17.41;100.00;102062.44;2079442;28;20415;-68
2022/07/18 01:43:12;;;;;;;4.93;1.37;;;;;;;17.41;100.00;102066.03;2073044;28;20678;-67
2022/07/18 01:44:12;;;;;;;8.37;1.20;;;;;;;17.43;100.00;102069.16;2072665;28;20809;-67
2022/07/18 01:45:15;;;;;;;9.00;1.93;;;;;;;17.38;100.00;102069.69;2079670;28;20189;-67
2022/07/18 01:46:15;;;;;;;16.63;1.90;;;;;;;17.00;100.00;102005.13;2081026;28;20568;-67
2022/07/18 01:47:16;;;;;;;12.40;2.37;;;;;;;17.40;100.00;102067.25;2075379;28;20467;-67
2022/07/18 01:48:17;;;;;;;13.73;2.37;;;;;;;17.37;100.00;102063.28;2077220;28;20177;-67
2022/07/18 01:49:18;;;;;;;12.23;2.50;;;;;;;17.34;100.00;102071.81;2081017;28;20705;-68
2022/07/18 01:50:19;;;;;;;11.63;2.63;;;;;;;17.23;100.00;102060.13;2080795;28;20970;-68
2022/07/18 01:51:20;;;;;;;10.37;2.20;;;;;;;17.27;100.00;102074.81;2080778;28;20760;-68
2022/07/18 01:52:20;;;;;;;8.17;2.10;;;;;;;16.21;100.00;101910.97;2081166;28;20314;-68
2022/07/18 01:53:21;;;;;;;6.37;1.70;;;;;;;16.77;100.00;101999.00;2073162;28;20228;-68
2022/07/18 01:54:27;;;;;;;9.80;1.87;;;;;;;17.29;100.00;102073.16;2079291;28;20563;-67
2022/07/18 01:55:27;;;;;;;15.33;2.33;;;;;;;17.33;100.00;102065.44;2080577;28;20620;-67
2022/07/18 01:56:28;;;;;;;7.50;1.70;;;;;;;17.34;100.00;102067.00;2075668;28;20438;-67
2022/07/18 01:57:28;;;;;;;7.43;1.80;;;;;;;17.36;100.00;102070.13;2072389;28;20205;-67
2022/07/18 01:58:29;;;;;;;6.70;1.50;;;;;;;17.39;100.00;102071.28;2072991;28;20189;-67
2022/07/18 01:59:29;;;;;;;5.30;1.53;;;;;;;17.44;100.00;102075.56;2072871;28;20258;-67
2022/07/18 02:00:30;;;;;;;7.13;1.50;;;;;;;17.42;100.00;102073.22;2072761;28;20204;-67
2022/07/18 02:01:31;;;;;;;3.70;1.60;;;;;;;17.39;100.00;102074.09;2073850;28;20710;-67
2022/07/18 02:02:31;;;;;;;7.90;1.87;;;;;;;17.28;100.00;102071.56;2072671;28;20181;-67
2022/07/18 02:03:32;;;;;;;13.07;1.93;;;;;;;17.28;100.00;102074.38;2072951;28;20465;-67
2022/07/18 02:05:51;;;;;;;10.33;2.20;;;;;;;17.40;100.00;102080.50;2079359;28;20192;-67
2022/07/18 02:06:51;;;;;;;5.30;1.37;;;;;;;17.43;100.00;102083.19;2074567;28;20448;-67
2022/07/18 02:07:52;;;;;;;6.33;1.60;;;;;;;17.40;100.00;102078.47;2080116;28;20289;-67
2022/07/18 02:08:52;;;;;;;6.00;2.00;;;;;;;17.40;100.00;102086.09;2079944;28;20192;-67
2022/07/18 02:09:53;;;;;;;10.40;2.10;;;;;;;17.40;100.00;102084.06;2078506;28;20247;-68
2022/07/18 02:10:54;;;;;;;18.27;3.30;;;;;;;17.31;100.00;102092.31;2072731;28;20664;-68
2022/07/18 02:11:54;;;;;;;14.30;2.47;;;;;;;17.32;100.00;102089.06;2073088;28;20173;-68
2022/07/18 02:12:55;;;;;;;6.87;1.60;;;;;;;17.31;100.00;102093.09;2080092;28;20260;-68
2022/07/18 02:13:56;;;;;;;10.30;2.13;;;;;;;17.32;100.00;102093.88;2079758;28;20209;-68
2022/07/18 02:14:56;;;;;;;10.87;2.23;;;;;;;17.07;100.00;102055.34;2072263;28;20436;-67
2022/07/18 02:15:57;;;;;;;7.83;1.97;;;;;;;17.13;100.00;102066.81;2077885;28;20193;-67
2022/07/18 02:16:57;;;;;;;10.83;2.33;;;;;;;17.33;100.00;102089.84;2076141;28;20177;-67
2022/07/18 02:17:58;;;;;;;6.43;1.60;;;;;;;17.35;100.00;102090.19;2075615;28;20253;-67
2022/07/18 02:18:59;;;;;;;5.43;1.60;;;;;;;17.37;100.00;102096.16;2079067;28;20706;-67
2022/07/18 02:19:59;;;;;;;5.10;1.40;;;;;;;17.34;100.00;102092.22;2072616;28;20779;-67
2022/07/18 02:21:00;;;;;;;3.63;1.10;;;;;;;17.19;100.00;102068.63;2072926;28;20198;-67
2022/07/18 02:22:00;;;;;;;4.37;1.23;;;;;;;17.37;100.00;102090.53;2080314;28;20556;-67
2022/07/18 02:23:01;;;;;;;5.00;1.33;;;;;;;16.96;100.00;102031.69;2074179;28;20272;-67
2022/07/18 02:24:01;;;;;;;7.10;1.03;;;;;;;17.35;100.00;102096.59;2077853;28;20188;-67
2022/07/18 02:25:03;;;;;;;2.10;1.00;;;;;;;17.36;100.00;102095.34;2080435;28;20601;-67
2022/07/18 02:26:04;;;;;;;2.60;0.90;;;;;;;17.06;100.00;102053.00;2077321;28;20196;-67
2022/07/18 02:27:05;;;;;;;2.50;1.17;;;;;;;16.93;100.00;102033.34;2071634;28;20480;-68
2022/07/18 02:28:05;;;;;;;4.93;1.30;;;;;;;16.94;100.00;102034.13;2073983;28;20199;-67
2022/07/18 02:29:06;;;;;;;1.90;0.90;;;;;;;17.42;99.26;102103.25;2080705;28;20208;-67
2022/07/18 02:30:08;;;;;;;2.93;1.33;;;;;;;17.34;98.78;102099.81;2073004;28;20730;-67
2022/07/18 02:31:09;;;;;;;3.97;1.47;;;;;;;16.75;99.07;102035.84;2080331;28;20264;-67
2022/07/18 02:32:09;;;;;;;8.07;1.87;;;;;;;17.35;100.00;102104.19;2074119;28;20474;-67
2022/07/18 02:33:10;;;;;;;17.10;2.90;;;;;;;16.98;100.00;102059.25;2077922;28;20191;-67
2022/07/18 02:34:10;;;;;;;10.10;2.07;;;;;;;17.26;100.00;102099.22;2076195;28;20687;-67
2022/07/18 02:35:11;;;;;;;10.10;2.20;;;;;;;17.27;100.00;102108.44;2075062;28;20190;-67
2022/07/18 02:36:11;;;;;;;8.53;1.87;;;;;;;17.29;100.00;102115.19;2080901;28;20691;-67
2022/07/18 02:37:12;;;;;;;4.47;1.60;;;;;;;17.02;100.00;102064.31;2079191;28;20180;-67
2022/07/18 02:38:13;;;;;;;4.77;1.10;;;;;;;16.16;99.64;101919.88;2079322;28;20267;-67
2022/07/18 02:39:14;;;;;;;3.40;1.13;;;;;;;17.34;99.35;102114.63;2080617;28;20208;-67
2022/07/18 02:40:14;;;;;;;3.30;0.97;;;;;;;17.29;99.39;102109.56;2080819;28;20550;-67
2022/07/18 02:41:15;;;;;;;4.73;1.10;;;;;;;16.38;99.03;101966.44;2075111;28;20437;-67
2022/07/18 02:42:15;;;;;;;2.70;1.20;;;;;;;16.91;100.00;102055.41;2072447;28;20204;-67
2022/07/18 02:43:16;;;;;;;3.43;1.10;;;;;;;17.27;100.00;102114.03;2072563;28;20196;-67
2022/07/18 02:44:16;;;;;;;2.43;1.00;;;;;;;16.47;100.00;101985.44;2074300;28;20182;-67
2022/07/18 02:45:16;;;;;;;3.77;0.97;;;;;;;17.04;100.00;102069.44;2080094;28;20234;-67
2022/07/18 02:46:17;;;;;;;3.77;1.13;;;;;;;17.37;100.00;102112.97;2081167;28;20180;-67
2022/07/18 02:47:17;;;;;;;3.07;1.20;;;;;;;17.40;100.00;102114.13;2079202;28;20230;-67
2022/07/18 02:48:18;;;;;;;3.17;1.10;;;;;;;17.41;100.00;102110.88;2080106;28;20192;-67
2022/07/18 02:49:27;;;;;;;2.60;1.03;;;;;;;17.41;100.00;102107.28;2074930;28;20279;-67
2022/07/18 02:50:28;;;;;;;4.33;1.27;;;;;;;16.97;100.00;102047.25;2072761;28;20197;-67
2022/07/18 02:51:29;;;;;;;3.90;1.20;;;;;;;17.40;100.00;102119.72;2077403;28;20479;-67
2022/07/18 02:52:30;;;;;;;3.20;1.17;;;;;;;17.39;100.00;102116.13;2080365;28;20224;-67
2022/07/18 02:53:30;;;;;;;3.90;1.20;;;;;;;17.40;100.00;102112.09;2078146;28;20288;-67
2022/07/18 02:54:34;;;;;;;4.67;1.20;;;;;;;17.36;100.00;102117.00;2073404;28;20214;-67
2022/07/18 02:55:34;;;;;;;7.23;1.30;;;;;;;17.34;100.00;102119.44;2073612;28;20188;-67
2022/07/18 02:56:35;;;;;;;4.30;1.13;;;;;;;17.21;100.00;102104.59;2074646;28;20452;-67
2022/07/18 02:57:35;;;;;;;7.60;1.63;;;;;;;17.10;100.00;102084.47;2081491;28;20219;-67
2022/07/18 02:58:36;;;;;;;6.60;1.60;;;;;;;17.23;100.00;102110.53;2075750;28;20203;-67
2022/07/18 02:59:37;;;;;;;8.90;1.57;;;;;;;17.32;100.00;102124.72;2087385;28;20199;-67
2022/07/18 03:00:37;;;;;;;4.53;1.30;;;;;;;17.31;100.00;102128.75;2089922;28;20184;-67
2022/07/18 03:01:37;;;;;;;3.00;1.23;;;;;;;17.34;100.00;102128.66;2080761;28;20183;-67
2022/07/18 03:02:38;;;;;;;3.83;1.40;;;;;;;16.94;100.00;102068.53;2079985;28;20183;-67
2022/07/18 03:03:39;;;;;;;3.17;1.03;;;;;;;16.93;100.00;102064.16;2072897;28;20188;-67
2022/07/18 03:04:39;;;;;;;4.63;1.40;;;;;;;17.30;100.00;102138.34;2073941;28;20242;-67
2022/07/18 03:05:40;;;;;;;6.17;1.73;;;;;;;17.31;100.00;102129.50;2073794;28;20185;-67
2022/07/18 03:06:40;;;;;;;6.50;1.97;;;;;;;17.32;100.00;102117.06;2074312;28;20182;-67
2022/07/18 03:07:41;;;;;;;6.33;1.50;;;;;;;17.41;100.00;102135.31;2074118;28;20659;-67
2022/07/18 03:08:41;;;;;;;6.63;1.40;;;;;;;17.42;100.00;102134.06;2078760;28;20184;-67
2022/07/18 03:09:42;;;;;;;7.27;1.30;;;;;;;17.47;100.00;102141.94;2082280;28;20201;-67
2022/07/18 03:10:43;;;;;;;3.00;1.10;;;;;;;17.39;100.00;102132.16;2082260;28;20317;-67
2022/07/18 03:11:43;;;;;;;3.30;1.03;;;;;;;17.48;100.00;102146.31;2081120;28;20179;-67
2022/07/18 03:12:44;;;;;;;3.63;1.50;;;;;;;17.46;100.00;102143.16;2073688;28;20734;-67
2022/07/18 03:13:44;;;;;;;4.73;1.30;;;;;;;17.36;100.00;102128.22;2076306;28;20214;-67
2022/07/18 03:14:45;;;;;;;3.90;1.50;;;;;;;17.45;100.00;102147.22;2075196;28;20186;-67
2022/07/18 03:15:45;;;;;;;4.27;1.20;;;;;;;16.81;100.00;102041.69;2079792;28;20589;-67
2022/07/18 03:16:46;;;;;;;3.20;1.10;;;;;;;17.47;100.00;102145.53;2082280;28;20194;-67
2022/07/18 03:17:46;;;;;;;3.03;1.10;;;;;;;17.49;100.00;102143.06;2081636;28;20186;-67
2022/07/18 03:18:47;;;;;;;4.67;1.30;;;;;;;17.47;100.00;102148.34;2079538;28;20587;-67
2022/07/18 03:19:47;;;;;;;2.00;1.20;;;;;;;17.25;100.00;102114.47;2074199;28;20181;-67
2022/07/18 03:20:48;;;;;;;3.90;1.00;;;;;;;17.42;100.00;102138.44;2074267;28;20440;-67
2022/07/18 03:21:48;;;;;;;2.47;1.10;;;;;;;17.42;100.00;102138.44;2082649;28;20204;-67
2022/07/18 03:22:49;;;;;;;3.37;1.07;;;;;;;17.33;100.00;102149.50;2074362;28;20248;-67
2022/07/18 03:23:49;;;;;;;4.33;1.10;;;;;;;16.98;100.00;102104.06;2073615;28;20191;-67
2022/07/18 03:24:50;;;;;;;5.10;1.20;;;;;;;17.22;100.00;102153.81;2073901;28;20215;-67
2022/07/18 03:25:50;;;;;;;5.73;1.23;;;;;;;17.13;100.00;102157.25;2077195;28;20715;-67
2022/07/18 03:26:51;;;;;;;2.47;1.30;;;;;;;16.34;100.00;102044.06;2081923;28;20264;-67
2022/07/18 03:27:51;;;;;;;2.20;1.20;;;;;;;17.05;100.00;102152.28;2075028;28;20192;-67
2022/07/18 03:28:52;;;;;;;6.80;1.37;;;;;;;16.97;100.00;102148.06;2079648;28;20276;-67
2022/07/18 03:29:52;;;;;;;5.47;1.60;;;;;;;15.71;100.00;101961.75;2082322;28;20209;-67
2022/07/18 03:30:53;;;;;;;7.40;1.80;;;;;;;16.98;100.00;102152.44;2082061;28;20182;-67
2022/07/18 03:31:53;;;;;;;19.07;2.77;;;;;;;17.00;100.00;102161.97;2079985;28;20177;-67
2022/07/18 03:32:54;;;;;;;10.07;2.33;;;;;;;16.98;100.00;102146.84;2073613;28;20191;-68
2022/07/18 03:33:55;;;;;;;5.70;2.13;;;;;;;17.02;100.00;102175.56;2073431;28;20551;-68
2022/07/18 03:34:55;;;;;;;5.67;1.50;;;;;;;17.03;100.00;102166.72;2082135;28;20178;-68
2022/07/18 03:35:56;;;;;;;3.93;1.30;;;;;;;17.05;100.00;102166.28;2079179;28;20172;-68
2022/07/18 03:36:56;;;;;;;5.80;1.37;;;;;;;17.04;100.00;102168.28;2075508;28;20612;-68
2022/07/18 03:37:57;;;;;;;4.73;1.40;;;;;;;17.02;100.00;102165.16;2078473;28;20690;-68
2022/07/18 03:38:57;;;;;;;5.27;1.50;;;;;;;16.63;100.00;102116.19;2081914;28;20194;-68
2022/07/18 03:39:58;;;;;;;5.07;1.20;;;;;;;16.99;100.00;102173.63;2079457;28;21247;-68
2022/07/18 03:40:59;;;;;;;3.90;1.30;;;;;;;16.44;100.00;102096.22;2078725;28;20729;-68
2022/07/18 03:41:59;;;;;;;2.77;1.40;;;;;;;16.99;100.00;102176.41;2073038;28;20253;-68
2022/07/18 03:42:59;;;;;;;5.37;1.40;;;;;;;16.99;100.00;102170.81;2074125;28;20262;-68
2022/07/18 03:44:00;;;;;;;5.63;1.60;;;;;;;16.98;100.00;102175.66;2073461;28;20663;-68
2022/07/18 03:45:00;;;;;;;3.23;1.30;;;;;;;16.92;100.00;102162.59;2079755;28;20284;-68
2022/07/18 03:46:01;;;;;;;3.77;1.43;;;;;;;16.95;100.00;102182.13;2076978;28;20213;-68
2022/07/18 03:47:01;;;;;;;4.83;1.50;;;;;;;16.86;100.00;102167.16;2077458;28;20672;-68
2022/07/18 03:48:02;;;;;;;5.70;1.80;;;;;;;15.87;100.00;102014.09;2079017;28;20224;-69
2022/07/18 03:49:03;;;;;;;8.83;2.80;;;;;;;16.92;100.00;102171.00;2073834;28;20597;-68
2022/07/18 03:50:04;;;;;;;5.17;2.40;;;;;;;16.49;100.00;102114.53;2077281;28;20223;-68
2022/07/18 03:51:04;;;;;;;6.17;2.00;;;;;;;16.89;100.00;102181.06;2073558;28;20178;-68
2022/07/18 03:52:05;;;;;;;6.17;1.87;;;;;;;16.88;100.00;102175.91;2081598;28;20191;-69
2022/07/18 03:53:05;;;;;;;4.63;1.40;;;;;;;16.89;100.00;102177.47;2075246;28;20195;-69
2022/07/18 03:54:06;;;;;;;3.23;1.40;;;;;;;16.73;100.00;102185.09;2073350;28;20213;-69
2022/07/18 03:55:07;;;;;;;4.17;1.50;;;;;;;16.80;100.00;102185.72;2073267;28;20183;-69
2022/07/18 03:56:08;;;;;;;3.47;1.17;;;;;;;16.84;100.00;102192.00;2076787;28;20197;-68
2022/07/18 03:57:08;;;;;;;3.33;1.30;;;;;;;16.32;100.00;102108.09;2078288;28;20445;-69
2022/07/18 03:58:09;;;;;;;5.80;1.23;;;;;;;16.86;100.00;102184.72;2074897;28;20173;-68
2022/07/18 03:59:09;;;;;;;3.93;1.37;;;;;;;16.38;100.00;102117.53;2081545;28;20176;-68
2022/07/18 04:00:11;;;;;;;4.30;1.40;;;;;;;16.89;100.00;102181.06;2074052;28;20657;-68
2022/07/18 04:01:12;;;;;;;2.80;1.30;;;;;;;16.94;100.00;102188.16;2080451;28;20311;-68
2022/07/18 04:02:12;;;;;;;2.47;1.07;;;;;;;16.96;100.00;102205.31;2074637;28;20504;-68
2022/07/18 04:03:12;;;;;;;3.43;1.30;;;;;;;16.96;100.00;102205.31;2078763;28;20643;-68
2022/07/18 04:04:13;;;;;;;6.00;1.80;;;;;;;16.98;100.00;102196.47;2077465;28;20178;-68
2022/07/18 04:05:15;;;;;;;7.10;2.33;;;;;;;16.60;100.00;102137.44;2075287;28;20200;-69
2022/07/18 04:06:15;;;;;;;7.47;2.00;;;;;;;17.00;100.00;102200.41;2079416;28;20615;-69
2022/07/18 04:07:16;;;;;;;9.57;2.00;;;;;;;16.95;100.00;102178.53;2076159;28;20781;-68
2022/07/18 04:08:16;;;;;;;11.83;2.50;;;;;;;17.08;100.00;102204.59;2082049;28;20650;-68
2022/07/18 04:09:17;;;;;;;12.97;3.53;;;;;;;17.08;100.00;102207.41;2073816;28;20181;-69
2022/07/18 04:10:17;;;;;;;11.83;2.90;;;;;;;17.12;100.00;102203.28;2080400;28;20690;-68
2022/07/18 04:11:20;;;;;;;8.27;3.13;;;;;;;17.14;100.00;102202.84;2076238;28;20185;-68
2022/07/18 04:12:21;;;;;;;7.80;2.60;;;;;;;17.19;100.00;102208.72;2073492;28;20694;-68
2022/07/18 04:13:21;;;;;;;5.50;1.90;;;;;;;17.19;100.00;102202.31;2077272;28;20445;-69
2022/07/18 04:14:24;;;;;;;4.93;1.50;;;;;;;17.24;100.00;102204.56;2073520;28;20204;-69
2022/07/18 04:15:25;;;;;;;7.17;1.87;;;;;;;17.24;100.00;102205.38;2073077;28;20616;-68
2022/07/18 04:16:26;;;;;;;10.10;1.93;;;;;;;17.11;100.00;102184.88;2073655;28;20421;-68
2022/07/18 04:17:27;;;;;;;6.10;1.93;;;;;;;17.25;100.00;102201.34;2073364;28;20420;-69
2022/07/18 04:18:27;;;;;;;7.17;1.93;;;;;;;17.27;100.00;102209.31;2081281;28;20633;-68
2022/07/18 04:19:28;;;;;;;7.13;1.90;;;;;;;17.31;100.00;102207.97;2081891;28;20211;-68
2022/07/18 04:20:28;;;;;;;4.27;1.63;;;;;;;16.38;100.00;102058.78;2081668;28;20649;-68
2022/07/18 04:21:29;;;;;;;6.80;1.73;;;;;;;17.32;100.00;102214.38;2077407;28;20185;-68
2022/07/18 04:22:29;;;;;;;5.10;1.97;;;;;;;17.33;100.00;102216.75;2076578;28;20215;-68
2022/07/18 04:23:30;;;;;;;6.07;1.60;;;;;;;17.34;100.00;102209.91;2079620;28;20197;-69
2022/07/18 04:24:30;;;;;;;5.70;1.60;;;;;;;17.31;100.00;102218.41;2073032;28;20646;-69
2022/07/18 04:25:39;;;;;;;4.50;1.53;;;;;;;17.30;100.00;102220.41;2073849;28;20169;-68
2022/07/18 04:26:40;;;;;;;5.97;1.67;;;;;;;16.60;100.00;102113.00;2073479;28;20168;-69
2022/07/18 04:27:40;;;;;;;6.30;1.80;;;;;;;17.30;100.00;102225.22;2073269;28;20405;-69
2022/07/18 04:28:41;;;;;;;4.33;1.70;;;;;;;16.44;100.00;102096.22;2072683;28;20205;-68
2022/07/18 04:29:42;;;;;;;4.20;1.70;;;;;;;17.24;100.00;102227.78;2078943;28;20346;-69
2022/07/18 04:30:43;;;;;;;3.00;1.63;;;;;;;17.29;100.00;102226.47;2076900;28;20193;-68
2022/07/18 04:31:44;;;;;;;2.87;1.40;;;;;;;17.28;100.00;102233.28;2071403;28;21001;-69
2022/07/18 04:32:44;;;;;;;4.80;1.90;;;;;;;17.32;100.00;102220.75;2079991;28;20889;-68
2022/07/18 04:33:45;;;;;;;8.17;1.60;;;;;;;16.88;100.00;102159.91;2078593;28;20753;-68
2022/07/18 04:34:45;;;;;;;5.70;1.80;;;;;;;17.46;100.00;102232.84;2079445;28;20198;-69
2022/07/18 04:35:46;;;;;;;3.37;1.70;;;;;;;17.55;100.00;102228.19;2080948;28;20185;-69
2022/07/18 04:36:46;;;;;;;3.67;1.97;;;;;;;17.62;100.00;102230.81;2080858;28;20693;-69
2022/07/18 04:37:47;;;;;;;5.47;2.17;;;;;;;17.66;100.00;102225.88;2076128;28;20190;-69
2022/07/18 04:38:47;;;;;;;5.23;2.53;;;;;;;17.72;100.00;102232.53;2079914;28;20252;-69
2022/07/18 04:39:48;;;;;;;6.57;2.47;;;;;;;17.77;100.00;102225.59;2076560;28;20570;-69
2022/07/18 04:40:48;;;;;;;10.13;2.90;;;;;;;17.80;100.00;102236.69;2079742;28;20197;-69
2022/07/18 04:41:49;;;;;;;5.53;3.50;;;;;;;17.86;100.00;102228.53;2080204;28;20180;-69
2022/07/18 04:42:50;;;;;;;5.53;3.47;;;;;;;17.92;100.00;102244.38;2080132;28;20182;-69
2022/07/18 04:43:52;;;;;;;6.10;3.20;;;;;;;17.02;100.00;102089.53;2080801;28;20184;-69
2022/07/18 04:44:53;;;;;;;6.57;3.40;;;;;;;18.01;100.00;102230.47;2079976;28;20447;-69